createdAt,value
2023-01-26T00:02:35.103Z,88.90
2023-01-26T00:07:44.098Z,76.50
2023-01-26T00:12:49.620Z,83.22
2023-01-26T00:17:55.172Z,78.30
2023-01-26T00:23:00.510Z,76.85
2023-01-26T00:28:05.794Z,81.50
2023-01-26T00:33:11.392Z,75.80
2023-01-26T00:38:17.209Z,78.78
2023-01-26T00:43:22.797Z,87.37
2023-01-26T00:48:30.114Z,69.57
2023-01-26T00:53:35.297Z,78.25
2023-01-26T00:58:42.028Z,74.35
2023-01-26T01:03:49.537Z,96.93
2023-01-26T01:08:54.868Z,81.73
2023-01-26T01:14:00.423Z,84.60
2023-01-26T01:19:06.181Z,84.07
2023-01-26T01:24:14.790Z,69.18
2023-01-26T01:29:20.718Z,82.82
2023-01-26T01:34:26.276Z,81.60
2023-01-26T01:39:31.735Z,98.38
2023-01-26T01:44:41.239Z,92.45
2023-01-26T01:49:50.955Z,83.78
2023-01-26T01:55:03.440Z,93.47
2023-01-26T02:00:11.004Z,77.28
2023-01-26T02:05:28.501Z,93.90
2023-01-26T02:10:35.029Z,96.78
2023-01-26T02:15:40.865Z,93.13
2023-01-26T02:20:57.311Z,82.40
2023-01-26T02:26:25.643Z,93.97
2023-01-26T02:31:31.886Z,98.22
2023-01-26T02:36:37.697Z,84.75
2023-01-26T02:42:03.545Z,111.87
2023-01-26T02:47:19.187Z,96.97
2023-01-26T02:52:30.640Z,83.40
2023-01-26T02:57:41.022Z,95.75
2023-01-26T03:02:46.910Z,96.30
2023-01-26T03:13:07.079Z,111.70
2023-01-26T03:18:35.966Z,107.38
2023-01-26T03:23:59.640Z,85.93
2023-01-26T03:29:06.159Z,51.45
2023-01-26T03:34:11.931Z,76.80
2023-01-26T03:39:37.346Z,76.88
2023-01-26T03:45:01.875Z,95.53
2023-01-26T03:50:26.620Z,95.70
2023-01-26T03:55:50.720Z,119.40
2023-01-26T04:00:57.286Z,73.43
2023-01-26T04:06:20.887Z,129.50
2023-01-26T04:11:27.012Z,118.15
2023-01-26T04:16:51.147Z,112.57
2023-01-26T04:21:56.621Z,94.50
2023-01-26T04:27:03.880Z,120.30
2023-01-26T04:32:14.479Z,111.88
2023-01-26T04:37:20.166Z,75.00
2023-01-26T04:42:27.278Z,112.23
2023-01-26T04:47:35.412Z,108.47
2023-01-26T04:57:46.996Z,115.80
2023-01-26T05:02:52.468Z,98.78
2023-01-26T05:07:58.302Z,120.40
2023-01-26T05:13:07.014Z,116.10
2023-01-26T05:18:23.341Z,93.57
2023-01-26T05:23:35.342Z,65.20
2023-01-26T05:28:58.890Z,131.52
2023-01-26T05:34:04.832Z,109.53
2023-01-26T05:39:13.353Z,92.85
2023-01-26T05:44:20.899Z,109.03
2023-01-26T05:49:30.514Z,87.43
2023-01-26T05:54:36.272Z,131.17
2023-01-26T05:59:42.304Z,106.43
2023-01-26T06:04:48.353Z,124.80
2023-01-26T06:09:54.390Z,87.07
2023-01-26T06:15:14.376Z,111.85
2023-01-26T06:20:22.969Z,95.78
2023-01-26T06:25:34.964Z,119.65
2023-01-26T06:30:43.505Z,89.45
2023-01-26T06:35:51.322Z,120.47
2023-01-26T06:40:57.381Z,106.40
2023-01-26T06:46:03.044Z,110.90
2023-01-26T06:51:13.306Z,95.22
2023-01-26T06:56:48.106Z,111.43
2023-01-26T07:01:58.541Z,83.20
2023-01-26T07:07:04.098Z,106.45
2023-01-26T07:12:11.045Z,64.38
2023-01-26T07:17:19.007Z,89.07
2023-01-26T07:22:24.865Z,84.80
2023-01-26T07:27:31.045Z,84.47
2023-01-26T07:32:36.502Z,85.03
2023-01-26T07:37:42.443Z,92.27
2023-01-26T07:42:48.660Z,104.03
2023-01-26T07:48:00.931Z,91.45
2023-01-26T07:53:06.941Z,92.18
2023-01-26T07:58:13.348Z,82.37
2023-01-26T08:03:21.430Z,97.55
2023-01-26T08:08:27.295Z,92.93
2023-01-26T08:13:35.664Z,78.37
2023-01-26T08:18:42.692Z,120.82
2023-01-26T08:23:54.409Z,96.70
2023-01-26T08:29:00.641Z,101.38
2023-01-26T08:34:06.151Z,114.07
2023-01-26T08:39:11.935Z,100.20
2023-01-26T08:44:17.432Z,112.03
2023-01-26T08:49:22.903Z,89.20
2023-01-26T08:54:30.592Z,73.03
2023-01-26T08:59:37.399Z,84.00
2023-01-26T09:04:43.343Z,114.40
2023-01-26T09:09:49.737Z,116.25
2023-01-26T09:14:55.182Z,112.50
2023-01-26T09:20:00.649Z,118.28
2023-01-26T09:25:07.463Z,125.95
2023-01-26T09:30:13.163Z,120.45
2023-01-26T09:35:18.993Z,119.23
2023-01-26T09:40:40.380Z,108.75
2023-01-26T09:46:15.483Z,124.78
2023-01-26T09:51:29.172Z,140.88
2023-01-26T09:56:35.543Z,124.78
2023-01-26T10:01:52.855Z,135.10
2023-01-26T10:06:59.844Z,134.52
2023-01-26T10:12:27.163Z,130.93
2023-01-26T10:17:41.060Z,135.02
2023-01-26T10:22:47.071Z,145.73
2023-01-26T10:27:57.239Z,147.50
2023-01-26T10:33:02.550Z,147.75
2023-01-26T10:38:28.510Z,131.87
2023-01-26T10:43:43.612Z,178.47
2023-01-26T10:48:57.970Z,159.77
2023-01-26T10:54:19.033Z,147.27
2023-01-26T10:59:25.600Z,153.38
2023-01-26T11:04:31.436Z,142.40
2023-01-26T11:09:37.415Z,141.95
2023-01-26T11:14:44.135Z,144.32
2023-01-26T11:19:57.246Z,140.60
2023-01-26T11:25:12.882Z,130.52
2023-01-26T11:30:37.346Z,146.32
2023-01-26T11:36:04.159Z,136.48
2023-01-26T11:41:16.143Z,129.77
2023-01-26T11:46:32.067Z,112.38
2023-01-26T11:52:04.941Z,124.00
2023-01-26T11:57:44.180Z,83.80
2023-01-26T12:02:57.349Z,59.83
2023-01-26T12:09:51.915Z,105.18
2023-01-26T12:15:06.087Z,81.55
2023-01-26T12:20:26.914Z,71.07
2023-01-26T12:25:49.289Z,87.80
2023-01-26T12:31:03.273Z,94.95
2023-01-26T12:36:22.139Z,102.27
2023-01-26T12:41:43.366Z,85.57
2023-01-26T12:46:54.650Z,52.75
2023-01-26T12:52:30.499Z,39.75
2023-01-26T12:57:44.276Z,33.60
2023-01-26T13:02:52.959Z,60.53
2023-01-26T13:08:27.140Z,59.17
2023-01-26T13:13:42.202Z,42.10
2023-01-26T13:18:59.173Z,60.80
2023-01-26T13:24:18.306Z,55.03
2023-01-26T13:29:37.695Z,48.83
2023-01-26T13:34:49.390Z,96.75
2023-01-26T13:40:03.922Z,40.03
2023-01-26T13:45:20.411Z,93.97
2023-01-26T13:50:33.322Z,40.33
2023-01-26T13:55:47.210Z,33.35
2023-01-26T14:01:15.383Z,66.60
2023-01-26T14:06:26.311Z,92.53
2023-01-26T14:11:36.368Z,50.58
2023-01-26T14:16:49.249Z,54.80
2023-01-26T14:22:04.484Z,50.80
2023-01-26T14:27:29.443Z,72.30
2023-01-26T14:32:39.439Z,95.68
2023-01-26T14:37:54.434Z,122.85
2023-01-26T14:43:05.806Z,64.23
2023-01-26T14:48:17.883Z,67.35
2023-01-26T14:53:33.781Z,74.90
2023-01-26T14:58:41.315Z,61.03
2023-01-26T15:03:50.617Z,84.72
2023-01-26T15:09:05.405Z,53.17
2023-01-26T15:14:23.158Z,58.88
2023-01-26T15:19:44.119Z,46.78
2023-01-26T15:24:56.374Z,73.45
2023-01-26T15:30:10.191Z,72.20
2023-01-26T15:35:37.130Z,54.92
2023-01-26T15:40:52.959Z,86.18
2023-01-26T15:46:03.601Z,61.05
2023-01-26T15:51:16.318Z,65.47
2023-01-26T15:56:22.319Z,92.53
2023-01-26T16:01:28.176Z,93.80
2023-01-26T16:06:35.979Z,93.80
2023-01-26T16:11:45.885Z,85.90
2023-01-26T16:16:51.372Z,82.88
2023-01-26T16:21:56.898Z,85.65
2023-01-26T16:27:09.568Z,71.18
2023-01-26T16:32:27.341Z,69.13
2023-01-26T16:37:35.685Z,83.07
2023-01-26T16:43:13.196Z,72.35
2023-01-26T16:48:19.541Z,67.47
2023-01-26T16:53:28.269Z,82.03
2023-01-26T16:58:34.673Z,95.95
2023-01-26T17:08:44.972Z,57.17
2023-01-26T17:13:50.614Z,101.03
2023-01-26T17:18:55.945Z,64.27
2023-01-26T17:24:01.778Z,71.90
2023-01-26T17:29:07.263Z,56.00
2023-01-26T17:34:13.045Z,88.67
2023-01-26T17:39:20.269Z,78.82
2023-01-26T17:44:25.730Z,76.82
2023-01-26T17:49:31.159Z,84.97
2023-01-26T17:54:36.545Z,52.97
2023-01-26T17:59:42.209Z,82.97
2023-01-26T18:04:47.391Z,76.37
2023-01-26T18:09:52.895Z,54.70
2023-01-26T18:14:58.147Z,57.83
2023-01-26T18:20:04.120Z,54.30
2023-01-26T18:25:09.784Z,46.22
2023-01-26T18:30:15.481Z,55.13
2023-01-26T18:35:20.768Z,58.33
2023-01-26T18:40:25.962Z,59.30
2023-01-26T18:45:31.590Z,44.30
2023-01-26T18:50:37.066Z,51.88
2023-01-26T18:55:42.495Z,44.67
2023-01-26T19:00:48.024Z,55.65
2023-01-26T19:05:53.989Z,60.17
2023-01-26T19:10:59.597Z,49.47
2023-01-26T19:16:06.804Z,54.42
2023-01-26T19:21:13.308Z,48.47
2023-01-26T19:26:20.762Z,42.75
2023-01-26T19:31:27.842Z,47.45
2023-01-26T19:36:34.564Z,34.88
2023-01-26T19:46:46.098Z,39.17
2023-01-26T19:51:51.760Z,54.57
2023-01-26T19:56:57.612Z,51.53
2023-01-26T20:02:03.181Z,39.65
2023-01-26T20:07:09.598Z,43.17
2023-01-26T20:12:14.769Z,44.05
2023-01-26T20:17:20.567Z,39.90
2023-01-26T20:22:25.838Z,42.13
2023-01-26T20:27:32.450Z,42.30
2023-01-26T20:32:37.883Z,37.03
2023-01-26T20:37:43.257Z,34.40
2023-01-26T20:42:49.238Z,30.35
2023-01-26T20:47:54.561Z,48.63
2023-01-26T20:52:59.838Z,36.88
2023-01-26T20:58:07.026Z,39.05
2023-01-26T21:03:12.468Z,39.42
2023-01-26T21:08:17.856Z,36.13
2023-01-26T21:13:23.284Z,28.50
2023-01-26T21:18:28.652Z,34.72
2023-01-26T21:23:34.918Z,30.73
2023-01-26T21:28:40.062Z,30.45
2023-01-26T21:33:46.499Z,46.78
2023-01-26T21:38:54.160Z,30.48
2023-01-26T21:44:03.928Z,30.38
2023-01-26T21:49:10.435Z,38.10
2023-01-26T21:59:21.586Z,27.70
2023-01-26T22:04:28.787Z,34.07
2023-01-26T22:09:37.311Z,35.58
2023-01-26T22:14:43.179Z,30.65
2023-01-26T22:19:48.716Z,29.33
2023-01-26T22:24:54.216Z,28.77
2023-01-26T22:29:59.832Z,26.90
2023-01-26T22:35:05.128Z,27.38
2023-01-26T22:40:11.113Z,24.08
2023-01-26T22:45:16.889Z,27.90
2023-01-26T22:50:22.272Z,22.97
2023-01-26T22:55:27.720Z,34.10
2023-01-26T23:00:34.792Z,23.02
2023-01-26T23:05:40.128Z,27.27
2023-01-26T23:10:45.297Z,18.13
2023-01-26T23:15:50.661Z,23.90
2023-01-26T23:20:56.077Z,17.98
2023-01-26T23:26:02.016Z,26.42
2023-01-26T23:31:07.880Z,23.75
2023-01-26T23:36:15.282Z,28.17
2023-01-26T23:41:21.180Z,28.20
2023-01-26T23:46:26.838Z,27.77
2023-01-26T23:51:32.484Z,19.80
2023-01-26T23:56:37.747Z,28.48
